ADDS METAR Data INFO
IDs: Format: Raw Decoded Include TAF

Data at: 0857 UTC 19 Jun 2018

KOKK 190809Z AUTO 33003KT 10SM BKN027 23/22 A3000 RMK AO2
KOKK 190756Z AUTO 34003KT 10SM FEW027 23/22 A2999 RMK AO2 SLP149 T02330217
KOKK 190656Z AUTO 35005KT 10SM FEW027 SCT044 24/22 A3000 RMK AO2 SLP150 T02440217
KOKK 190556Z AUTO 30005KT 10SM FEW041 SCT050 26/23 A2999 RMK AO2 SLP147 6//// T02560233 10317 20256 58004
KOKK 190456Z AUTO 25006KT 10SM BKN039 BKN050 27/23 A3000 RMK AO2 SLP150 T02720228 403390244
KOKK 190356Z AUTO 23009KT 10SM CLR 27/23 A3000 RMK AO2 LTG DSNT NE AND E SLP149 T02720228
KOKK 190256Z AUTO 24009KT 10SM CLR 28/23 A3000 RMK AO2 LTG DSNT N AND NE SLP150 6//// T02830228 53011
KOKK 190156Z AUTO 24009KT 10SM CLR 29/23 A2999 RMK AO2 LTG DSNT N AND NW SLP146 T02890228
KOKK 190056Z AUTO 24011KT 10SM CLR 31/23 A2997 RMK AO2 SLP141 T03060228
KOKK 182356Z AUTO 25015G21KT 10SM CLR 32/22 A2997 RMK AO2 LTG DSNT N AND NW SLP140 T03170222 10339 20317 55004
KOKK 182256Z AUTO 24012KT 10SM SCT045 33/23 A2996 RMK AO2 SLP137 T03280228
KOKK 182156Z AUTO 22017KT 10SM BKN045 33/23 A2996 RMK AO2 SLP136 T03280228
KOKK 182056Z AUTO 21013G20KT 10SM SCT047 SCT065 34/23 A2998 RMK AO2 SLP144 T03390228 56019
KOKK 181956Z AUTO 24012G18KT 10SM SCT047 SCT055 34/23 A3000 RMK AO2 SLP149 T03390233
KOKK 181856Z AUTO 25012G18KT 10SM SCT047 BKN060 34/23 A3002 RMK AO2 SLP156 T03390228
KOKK 181756Z AUTO 24011KT 10SM BKN041 BKN065 33/23 A3004 RMK AO2 SLP163 T03280233 10328 20267 58011
KOKK 181656Z AUTO 25011KT 10SM SCT037 33/24 A3006 RMK AO2 SLP170 T03280239
KOKK 181556Z AUTO 27013KT 10SM CLR 32/23 A3007 RMK AO2 SLP175 T03220233
KOKK 181456Z AUTO 26014KT 10SM CLR 31/23 A3007 RMK AO2 SLP175 T03110228 51006
KOKK 181356Z AUTO 26012KT 10SM CLR 29/23 A3007 RMK AO2 SLP175 T02940228
KOKK 181256Z AUTO 26013KT 10SM CLR 28/23 A3006 RMK AO2 SLP172 T02830228
KOKK 181156Z AUTO 23012KT 10SM CLR 27/22 A3005 RMK AO2 SLP169 T02670222 10272 20244 50004
KOKK 181056Z AUTO 22007KT 10SM CLR 24/22 A3005 RMK AO2 SLP170 T02440222
KOKK 180956Z AUTO 23007KT 10SM CLR 24/22 A3005 RMK AO2 SLP169 T02440217
KOKK 180856Z AUTO 23007KT 10SM CLR 25/22 A3004 RMK AO2 SLP164 T02500222 56006
KOKK 180756Z AUTO 22010KT 10SM CLR 26/22 A3004 RMK AO2 SLP165 T02610222
KOKK 180656Z AUTO 21010KT 10SM CLR 27/23 A3005 RMK AO2 SLP166 T02670228
KOKK 180556Z AUTO 21008KT 10SM CLR 27/23 A3006 RMK AO2 SLP171 T02670228 10322 20261 50001
KOKK 180456Z AUTO 20007KT 10SM CLR 27/23 A3007 RMK AO2 SLP175 T02670228 403440228
KOKK 180356Z AUTO 20006KT 10SM CLR 27/23 A3006 RMK AO2 SLP173 T02670228
KOKK 180256Z AUTO 19005KT 10SM CLR 27/23 A3006 RMK AO2 SLP171 T02670228 53009
KOKK 180156Z AUTO 19006KT 10SM CLR 28/23 A3004 RMK AO2 SLP164 T02830228
KOKK 180056Z AUTO 21006KT 10SM CLR 31/23 A3002 RMK AO2 SLP158 T03060228
KOKK 172356Z AUTO 22008KT 10SM FEW045 32/23 A3003 RMK AO2 SLP161 T03220233 10344 20322 57010
KOKK 172256Z AUTO 24012KT 10SM FEW050 33/22 A3004 RMK AO2 SLP166 T03280222
KOKK 172156Z AUTO 22009KT 10SM FEW055 33/22 A3005 RMK AO2 SLP169 T03330222